sensor_id;sensor_type;location;lat;lon;timestamp;P1;durP1;ratioP1;P2;durP2;ratioP2
16735;SDS011;17990;49.548;9.730;2023-12-20T00:00:29;2.40;;;2.10;;
16735;SDS011;17990;49.548;9.730;2023-12-20T00:02:56;3.20;;;2.27;;
16735;SDS011;17990;49.548;9.730;2023-12-20T00:05:23;3.53;;;2.30;;
16735;SDS011;17990;49.548;9.730;2023-12-20T00:07:50;3.13;;;2.10;;
16735;SDS011;17990;49.548;9.730;2023-12-20T00:10:16;2.47;;;1.93;;
16735;SDS011;17990;49.548;9.730;2023-12-20T00:12:43;2.83;;;1.87;;
16735;SDS011;17990;49.548;9.730;2023-12-20T00:15:11;3.00;;;1.90;;
16735;SDS011;17990;49.548;9.730;2023-12-20T00:17:38;2.30;;;1.83;;
16735;SDS011;17990;49.548;9.730;2023-12-20T00:20:05;2.20;;;1.70;;
16735;SDS011;17990;49.548;9.730;2023-12-20T00:22:33;2.83;;;1.97;;
16735;SDS011;17990;49.548;9.730;2023-12-20T00:25:00;2.00;;;1.60;;
16735;SDS011;17990;49.548;9.730;2023-12-20T00:27:26;3.10;;;1.97;;
16735;SDS011;17990;49.548;9.730;2023-12-20T00:29:53;2.13;;;1.50;;
16735;SDS011;17990;49.548;9.730;2023-12-20T00:32:21;1.90;;;1.50;;
16735;SDS011;17990;49.548;9.730;2023-12-20T00:34:48;2.23;;;1.60;;
16735;SDS011;17990;49.548;9.730;2023-12-20T00:37:15;2.87;;;1.80;;
16735;SDS011;17990;49.548;9.730;2023-12-20T00:39:42;1.90;;;1.50;;
16735;SDS011;17990;49.548;9.730;2023-12-20T00:42:08;2.30;;;1.80;;
16735;SDS011;17990;49.548;9.730;2023-12-20T00:44:35;1.87;;;1.47;;
16735;SDS011;17990;49.548;9.730;2023-12-20T00:47:02;2.60;;;1.80;;
16735;SDS011;17990;49.548;9.730;2023-12-20T00:49:31;2.00;;;1.50;;
16735;SDS011;17990;49.548;9.730;2023-12-20T00:51:57;2.07;;;1.60;;
16735;SDS011;17990;49.548;9.730;2023-12-20T00:54:24;2.37;;;1.67;;
16735;SDS011;17990;49.548;9.730;2023-12-20T00:56:51;2.00;;;1.63;;
16735;SDS011;17990;49.548;9.730;2023-12-20T00:59:17;3.97;;;1.80;;
16735;SDS011;17990;49.548;9.730;2023-12-20T01:01:45;2.00;;;1.60;;
16735;SDS011;17990;49.548;9.730;2023-12-20T01:04:11;1.97;;;1.47;;
16735;SDS011;17990;49.548;9.730;2023-12-20T01:06:40;2.60;;;1.40;;
16735;SDS011;17990;49.548;9.730;2023-12-20T01:09:06;2.30;;;1.57;;
16735;SDS011;17990;49.548;9.730;2023-12-20T01:11:33;1.70;;;1.47;;
16735;SDS011;17990;49.548;9.730;2023-12-20T01:14:00;1.83;;;1.30;;
16735;SDS011;17990;49.548;9.730;2023-12-20T01:16:26;2.13;;;1.70;;
16735;SDS011;17990;49.548;9.730;2023-12-20T01:18:53;1.90;;;1.50;;
16735;SDS011;17990;49.548;9.730;2023-12-20T01:21:20;2.47;;;1.23;;
16735;SDS011;17990;49.548;9.730;2023-12-20T01:23:48;2.20;;;1.60;;
16735;SDS011;17990;49.548;9.730;2023-12-20T01:26:14;2.67;;;1.80;;
16735;SDS011;17990;49.548;9.730;2023-12-20T01:28:41;2.07;;;1.60;;
16735;SDS011;17990;49.548;9.730;2023-12-20T01:31:08;1.77;;;1.20;;
16735;SDS011;17990;49.548;9.730;2023-12-20T01:33:35;2.10;;;1.27;;
16735;SDS011;17990;49.548;9.730;2023-12-20T01:36:02;2.03;;;1.20;;
16735;SDS011;17990;49.548;9.730;2023-12-20T01:38:28;1.87;;;1.30;;
16735;SDS011;17990;49.548;9.730;2023-12-20T01:40:57;2.73;;;1.30;;
16735;SDS011;17990;49.548;9.730;2023-12-20T01:43:23;1.70;;;1.10;;
16735;SDS011;17990;49.548;9.730;2023-12-20T01:45:50;1.13;;;0.90;;
16735;SDS011;17990;49.548;9.730;2023-12-20T01:48:18;2.33;;;1.20;;
16735;SDS011;17990;49.548;9.730;2023-12-20T01:50:45;2.20;;;1.30;;
16735;SDS011;17990;49.548;9.730;2023-12-20T01:53:12;1.27;;;1.10;;
16735;SDS011;17990;49.548;9.730;2023-12-20T01:55:40;1.23;;;1.03;;
16735;SDS011;17990;49.548;9.730;2023-12-20T01:58:09;1.63;;;1.03;;
16735;SDS011;17990;49.548;9.730;2023-12-20T02:00:37;1.20;;;0.93;;
16735;SDS011;17990;49.548;9.730;2023-12-20T02:03:04;1.37;;;1.00;;
16735;SDS011;17990;49.548;9.730;2023-12-20T02:05:31;1.10;;;0.83;;
16735;SDS011;17990;49.548;9.730;2023-12-20T02:07:59;1.27;;;1.00;;
16735;SDS011;17990;49.548;9.730;2023-12-20T02:10:26;1.60;;;0.90;;
16735;SDS011;17990;49.548;9.730;2023-12-20T02:12:54;1.63;;;1.20;;
16735;SDS011;17990;49.548;9.730;2023-12-20T02:15:22;1.53;;;1.33;;
16735;SDS011;17990;49.548;9.730;2023-12-20T02:17:49;1.53;;;1.30;;
16735;SDS011;17990;49.548;9.730;2023-12-20T02:20:16;1.67;;;1.30;;
16735;SDS011;17990;49.548;9.730;2023-12-20T02:22:44;1.50;;;1.30;;
16735;SDS011;17990;49.548;9.730;2023-12-20T02:25:11;1.57;;;1.00;;
16735;SDS011;17990;49.548;9.730;2023-12-20T02:27:38;1.10;;;0.60;;
16735;SDS011;17990;49.548;9.730;2023-12-20T02:30:05;1.53;;;1.00;;
16735;SDS011;17990;49.548;9.730;2023-12-20T02:32:32;1.03;;;0.70;;
16735;SDS011;17990;49.548;9.730;2023-12-20T02:34:59;2.23;;;0.90;;
16735;SDS011;17990;49.548;9.730;2023-12-20T02:37:26;1.10;;;1.00;;
16735;SDS011;17990;49.548;9.730;2023-12-20T02:39:54;2.53;;;0.90;;
16735;SDS011;17990;49.548;9.730;2023-12-20T02:42:21;2.57;;;1.00;;
16735;SDS011;17990;49.548;9.730;2023-12-20T02:44:47;1.87;;;0.80;;
16735;SDS011;17990;49.548;9.730;2023-12-20T02:47:14;1.23;;;0.70;;
16735;SDS011;17990;49.548;9.730;2023-12-20T02:49:41;1.80;;;0.63;;
16735;SDS011;17990;49.548;9.730;2023-12-20T02:52:07;1.20;;;0.80;;
16735;SDS011;17990;49.548;9.730;2023-12-20T02:54:34;0.90;;;0.50;;
16735;SDS011;17990;49.548;9.730;2023-12-20T02:57:02;1.20;;;0.80;;
16735;SDS011;17990;49.548;9.730;2023-12-20T02:59:29;0.70;;;0.60;;
16735;SDS011;17990;49.548;9.730;2023-12-20T03:01:56;2.00;;;0.87;;
16735;SDS011;17990;49.548;9.730;2023-12-20T03:04:23;1.47;;;0.53;;
16735;SDS011;17990;49.548;9.730;2023-12-20T03:06:50;0.77;;;0.40;;
16735;SDS011;17990;49.548;9.730;2023-12-20T03:09:17;0.53;;;0.40;;
16735;SDS011;17990;49.548;9.730;2023-12-20T03:11:43;0.40;;;0.30;;
16735;SDS011;17990;49.548;9.730;2023-12-20T03:14:11;1.07;;;0.50;;
16735;SDS011;17990;49.548;9.730;2023-12-20T03:16:38;0.70;;;0.43;;
16735;SDS011;17990;49.548;9.730;2023-12-20T03:19:05;0.90;;;0.50;;
16735;SDS011;17990;49.548;9.730;2023-12-20T03:21:31;0.47;;;0.30;;
16735;SDS011;17990;49.548;9.730;2023-12-20T03:23:58;0.20;;;0.20;;
16735;SDS011;17990;49.548;9.730;2023-12-20T03:26:25;1.17;;;0.40;;
16735;SDS011;17990;49.548;9.730;2023-12-20T03:28:51;1.20;;;0.70;;
16735;SDS011;17990;49.548;9.730;2023-12-20T03:31:20;1.63;;;0.60;;
16735;SDS011;17990;49.548;9.730;2023-12-20T03:33:47;0.80;;;0.50;;
16735;SDS011;17990;49.548;9.730;2023-12-20T03:36:13;0.60;;;0.40;;
16735;SDS011;17990;49.548;9.730;2023-12-20T03:38:40;0.70;;;0.47;;
16735;SDS011;17990;49.548;9.730;2023-12-20T03:41:07;1.20;;;0.50;;
16735;SDS011;17990;49.548;9.730;2023-12-20T03:43:34;2.30;;;1.10;;
16735;SDS011;17990;49.548;9.730;2023-12-20T03:46:00;1.37;;;0.80;;
16735;SDS011;17990;49.548;9.730;2023-12-20T03:48:30;1.10;;;0.70;;
16735;SDS011;17990;49.548;9.730;2023-12-20T03:50:56;3.30;;;0.50;;
16735;SDS011;17990;49.548;9.730;2023-12-20T03:53:23;0.70;;;0.53;;
16735;SDS011;17990;49.548;9.730;2023-12-20T03:55:50;1.23;;;0.50;;
16735;SDS011;17990;49.548;9.730;2023-12-20T03:58:16;1.90;;;0.90;;
16735;SDS011;17990;49.548;9.730;2023-12-20T04:00:43;1.83;;;1.27;;
16735;SDS011;17990;49.548;9.730;2023-12-20T04:03:10;1.83;;;1.10;;
16735;SDS011;17990;49.548;9.730;2023-12-20T04:05:39;1.37;;;0.60;;
16735;SDS011;17990;49.548;9.730;2023-12-20T04:08:07;2.63;;;0.80;;
16735;SDS011;17990;49.548;9.730;2023-12-20T04:10:34;1.17;;;0.73;;
16735;SDS011;17990;49.548;9.730;2023-12-20T04:13:02;0.50;;;0.40;;
16735;SDS011;17990;49.548;9.730;2023-12-20T04:15:29;0.53;;;0.40;;
16735;SDS011;17990;49.548;9.730;2023-12-20T04:17:56;1.10;;;0.43;;
16735;SDS011;17990;49.548;9.730;2023-12-20T04:20:22;1.70;;;0.80;;
16735;SDS011;17990;49.548;9.730;2023-12-20T04:22:50;2.67;;;1.20;;
16735;SDS011;17990;49.548;9.730;2023-12-20T04:25:17;1.10;;;0.60;;
16735;SDS011;17990;49.548;9.730;2023-12-20T04:27:44;1.10;;;0.73;;
16735;SDS011;17990;49.548;9.730;2023-12-20T04:30:11;0.70;;;0.43;;
16735;SDS011;17990;49.548;9.730;2023-12-20T04:32:38;0.70;;;0.50;;
16735;SDS011;17990;49.548;9.730;2023-12-20T04:35:05;1.67;;;0.73;;
16735;SDS011;17990;49.548;9.730;2023-12-20T04:37:33;1.00;;;0.70;;
16735;SDS011;17990;49.548;9.730;2023-12-20T04:40:01;1.07;;;0.70;;
16735;SDS011;17990;49.548;9.730;2023-12-20T04:42:30;2.23;;;1.00;;
16735;SDS011;17990;49.548;9.730;2023-12-20T04:44:57;1.03;;;0.77;;
16735;SDS011;17990;49.548;9.730;2023-12-20T04:47:23;1.30;;;0.80;;
16735;SDS011;17990;49.548;9.730;2023-12-20T04:49:50;1.67;;;0.60;;
16735;SDS011;17990;49.548;9.730;2023-12-20T04:52:17;1.13;;;0.63;;
16735;SDS011;17990;49.548;9.730;2023-12-20T04:54:44;1.27;;;0.63;;
16735;SDS011;17990;49.548;9.730;2023-12-20T04:57:11;0.97;;;0.70;;
16735;SDS011;17990;49.548;9.730;2023-12-20T04:59:38;1.13;;;0.80;;
16735;SDS011;17990;49.548;9.730;2023-12-20T05:02:06;0.87;;;0.73;;
16735;SDS011;17990;49.548;9.730;2023-12-20T05:04:32;1.37;;;0.80;;
16735;SDS011;17990;49.548;9.730;2023-12-20T05:06:59;1.37;;;0.53;;
16735;SDS011;17990;49.548;9.730;2023-12-20T05:09:26;1.80;;;0.50;;
16735;SDS011;17990;49.548;9.730;2023-12-20T05:11:53;2.17;;;1.13;;
16735;SDS011;17990;49.548;9.730;2023-12-20T05:14:21;1.70;;;1.23;;
16735;SDS011;17990;49.548;9.730;2023-12-20T05:16:47;1.30;;;0.80;;
16735;SDS011;17990;49.548;9.730;2023-12-20T05:19:14;1.90;;;1.67;;
16735;SDS011;17990;49.548;9.730;2023-12-20T05:21:41;1.40;;;1.10;;
16735;SDS011;17990;49.548;9.730;2023-12-20T05:24:08;1.83;;;0.90;;
16735;SDS011;17990;49.548;9.730;2023-12-20T05:26:34;1.47;;;0.90;;
16735;SDS011;17990;49.548;9.730;2023-12-20T05:29:01;1.73;;;1.10;;
16735;SDS011;17990;49.548;9.730;2023-12-20T05:31:29;2.13;;;1.20;;
16735;SDS011;17990;49.548;9.730;2023-12-20T05:33:57;1.20;;;0.73;;
16735;SDS011;17990;49.548;9.730;2023-12-20T05:36:23;3.33;;;1.20;;
16735;SDS011;17990;49.548;9.730;2023-12-20T05:38:50;1.70;;;1.00;;
16735;SDS011;17990;49.548;9.730;2023-12-20T05:41:17;0.90;;;0.80;;
16735;SDS011;17990;49.548;9.730;2023-12-20T05:43:44;1.07;;;0.90;;
16735;SDS011;17990;49.548;9.730;2023-12-20T05:46:10;1.20;;;0.80;;
16735;SDS011;17990;49.548;9.730;2023-12-20T05:48:38;3.23;;;1.30;;
16735;SDS011;17990;49.548;9.730;2023-12-20T05:51:05;1.20;;;1.00;;
16735;SDS011;17990;49.548;9.730;2023-12-20T05:53:33;1.87;;;1.40;;
16735;SDS011;17990;49.548;9.730;2023-12-20T05:55:59;1.83;;;1.10;;
16735;SDS011;17990;49.548;9.730;2023-12-20T05:58:26;2.00;;;1.30;;
16735;SDS011;17990;49.548;9.730;2023-12-20T06:00:54;2.67;;;1.80;;
16735;SDS011;17990;49.548;9.730;2023-12-20T06:03:20;1.90;;;1.40;;
16735;SDS011;17990;49.548;9.730;2023-12-20T06:05:49;5.73;;;2.00;;
16735;SDS011;17990;49.548;9.730;2023-12-20T06:08:17;2.97;;;2.20;;
16735;SDS011;17990;49.548;9.730;2023-12-20T06:10:44;3.93;;;2.20;;
16735;SDS011;17990;49.548;9.730;2023-12-20T06:13:10;1.83;;;1.30;;
16735;SDS011;17990;49.548;9.730;2023-12-20T06:15:38;2.60;;;2.00;;
16735;SDS011;17990;49.548;9.730;2023-12-20T06:18:05;2.27;;;1.80;;
16735;SDS011;17990;49.548;9.730;2023-12-20T06:20:32;2.17;;;1.40;;
16735;SDS011;17990;49.548;9.730;2023-12-20T06:23:00;1.90;;;1.30;;
16735;SDS011;17990;49.548;9.730;2023-12-20T06:25:27;1.00;;;0.90;;
16735;SDS011;17990;49.548;9.730;2023-12-20T06:27:53;1.70;;;1.00;;
16735;SDS011;17990;49.548;9.730;2023-12-20T06:30:20;0.80;;;0.70;;
16735;SDS011;17990;49.548;9.730;2023-12-20T06:32:47;1.30;;;0.80;;
16735;SDS011;17990;49.548;9.730;2023-12-20T06:35:14;2.93;;;0.90;;
16735;SDS011;17990;49.548;9.730;2023-12-20T06:37:41;1.43;;;0.80;;
16735;SDS011;17990;49.548;9.730;2023-12-20T06:40:10;1.37;;;0.53;;
16735;SDS011;17990;49.548;9.730;2023-12-20T06:42:37;1.70;;;1.00;;
16735;SDS011;17990;49.548;9.730;2023-12-20T06:45:04;3.40;;;0.90;;
16735;SDS011;17990;49.548;9.730;2023-12-20T06:47:31;6.27;;;2.67;;
16735;SDS011;17990;49.548;9.730;2023-12-20T06:49:58;1.60;;;1.10;;
16735;SDS011;17990;49.548;9.730;2023-12-20T06:52:25;1.37;;;0.83;;
16735;SDS011;17990;49.548;9.730;2023-12-20T06:54:52;2.80;;;1.20;;
16735;SDS011;17990;49.548;9.730;2023-12-20T06:57:20;2.70;;;1.00;;
16735;SDS011;17990;49.548;9.730;2023-12-20T06:59:47;1.57;;;0.87;;
16735;SDS011;17990;49.548;9.730;2023-12-20T07:02:13;2.50;;;0.90;;
16735;SDS011;17990;49.548;9.730;2023-12-20T07:04:40;1.20;;;0.93;;
16735;SDS011;17990;49.548;9.730;2023-12-20T07:07:07;1.83;;;1.10;;
16735;SDS011;17990;49.548;9.730;2023-12-20T07:09:34;1.20;;;1.10;;
16735;SDS011;17990;49.548;9.730;2023-12-20T07:12:01;1.73;;;1.30;;
16735;SDS011;17990;49.548;9.730;2023-12-20T07:14:29;1.00;;;0.80;;
16735;SDS011;17990;49.548;9.730;2023-12-20T07:16:56;2.00;;;1.10;;
16735;SDS011;17990;49.548;9.730;2023-12-20T07:19:22;1.10;;;0.90;;
16735;SDS011;17990;49.548;9.730;2023-12-20T07:21:49;1.77;;;1.20;;
16735;SDS011;17990;49.548;9.730;2023-12-20T07:24:16;2.27;;;1.00;;
16735;SDS011;17990;49.548;9.730;2023-12-20T07:26:43;1.83;;;1.20;;
16735;SDS011;17990;49.548;9.730;2023-12-20T07:29:09;1.43;;;1.10;;
16735;SDS011;17990;49.548;9.730;2023-12-20T07:31:37;3.20;;;1.40;;
16735;SDS011;17990;49.548;9.730;2023-12-20T07:34:04;2.73;;;1.10;;
16735;SDS011;17990;49.548;9.730;2023-12-20T07:36:31;3.77;;;1.47;;
16735;SDS011;17990;49.548;9.730;2023-12-20T07:38:58;2.87;;;1.20;;
16735;SDS011;17990;49.548;9.730;2023-12-20T07:41:24;1.67;;;1.20;;
16735;SDS011;17990;49.548;9.730;2023-12-20T07:43:51;1.87;;;0.80;;
16735;SDS011;17990;49.548;9.730;2023-12-20T07:46:18;3.00;;;1.20;;
16735;SDS011;17990;49.548;9.730;2023-12-20T07:48:50;2.93;;;0.90;;
16735;SDS011;17990;49.548;9.730;2023-12-20T07:51:16;3.10;;;2.07;;
16735;SDS011;17990;49.548;9.730;2023-12-20T07:53:44;6.37;;;1.70;;
16735;SDS011;17990;49.548;9.730;2023-12-20T07:56:14;2.50;;;1.27;;
16735;SDS011;17990;49.548;9.730;2023-12-20T07:58:41;3.37;;;1.10;;
16735;SDS011;17990;49.548;9.730;2023-12-20T08:01:08;4.80;;;1.00;;
16735;SDS011;17990;49.548;9.730;2023-12-20T08:03:34;5.37;;;1.20;;
16735;SDS011;17990;49.548;9.730;2023-12-20T08:06:03;6.43;;;2.13;;
16735;SDS011;17990;49.548;9.730;2023-12-20T08:08:30;1.77;;;0.90;;
16735;SDS011;17990;49.548;9.730;2023-12-20T08:10:56;3.63;;;1.00;;
16735;SDS011;17990;49.548;9.730;2023-12-20T08:13:25;2.93;;;0.90;;
16735;SDS011;17990;49.548;9.730;2023-12-20T08:15:52;3.23;;;1.20;;
16735;SDS011;17990;49.548;9.730;2023-12-20T08:18:19;4.00;;;2.00;;
16735;SDS011;17990;49.548;9.730;2023-12-20T08:20:46;2.53;;;1.50;;
16735;SDS011;17990;49.548;9.730;2023-12-20T08:23:14;2.53;;;1.33;;
16735;SDS011;17990;49.548;9.730;2023-12-20T08:25:41;3.10;;;1.40;;
16735;SDS011;17990;49.548;9.730;2023-12-20T08:28:08;3.50;;;1.40;;
16735;SDS011;17990;49.548;9.730;2023-12-20T08:30:35;3.30;;;1.60;;
16735;SDS011;17990;49.548;9.730;2023-12-20T08:33:02;5.07;;;1.57;;
16735;SDS011;17990;49.548;9.730;2023-12-20T08:35:29;5.97;;;2.07;;
16735;SDS011;17990;49.548;9.730;2023-12-20T08:37:55;5.43;;;2.90;;
16735;SDS011;17990;49.548;9.730;2023-12-20T08:40:23;3.73;;;2.10;;
16735;SDS011;17990;49.548;9.730;2023-12-20T08:42:50;3.20;;;1.93;;
16735;SDS011;17990;49.548;9.730;2023-12-20T08:45:17;6.60;;;2.63;;
16735;SDS011;17990;49.548;9.730;2023-12-20T08:47:44;5.10;;;1.77;;
16735;SDS011;17990;49.548;9.730;2023-12-20T08:50:10;3.07;;;1.77;;
16735;SDS011;17990;49.548;9.730;2023-12-20T08:52:38;3.70;;;1.63;;
16735;SDS011;17990;49.548;9.730;2023-12-20T08:55:05;4.00;;;1.33;;
16735;SDS011;17990;49.548;9.730;2023-12-20T08:57:33;4.37;;;1.40;;
16735;SDS011;17990;49.548;9.730;2023-12-20T09:00:00;17.03;;;2.27;;
16735;SDS011;17990;49.548;9.730;2023-12-20T09:02:28;2.33;;;1.10;;
16735;SDS011;17990;49.548;9.730;2023-12-20T09:04:55;4.63;;;1.20;;
16735;SDS011;17990;49.548;9.730;2023-12-20T09:07:22;2.87;;;1.00;;
16735;SDS011;17990;49.548;9.730;2023-12-20T09:09:49;3.30;;;1.40;;
16735;SDS011;17990;49.548;9.730;2023-12-20T09:12:17;2.87;;;1.23;;
16735;SDS011;17990;49.548;9.730;2023-12-20T09:14:45;3.30;;;1.00;;
16735;SDS011;17990;49.548;9.730;2023-12-20T09:17:12;2.97;;;1.27;;
16735;SDS011;17990;49.548;9.730;2023-12-20T09:19:38;4.07;;;1.20;;
16735;SDS011;17990;49.548;9.730;2023-12-20T09:22:05;2.47;;;1.27;;
16735;SDS011;17990;49.548;9.730;2023-12-20T09:24:32;4.37;;;1.40;;
16735;SDS011;17990;49.548;9.730;2023-12-20T09:26:59;2.47;;;1.00;;
16735;SDS011;17990;49.548;9.730;2023-12-20T09:29:26;3.63;;;1.40;;
16735;SDS011;17990;49.548;9.730;2023-12-20T09:31:54;3.13;;;1.30;;
16735;SDS011;17990;49.548;9.730;2023-12-20T09:34:22;3.40;;;1.73;;
16735;SDS011;17990;49.548;9.730;2023-12-20T09:36:49;4.53;;;1.73;;
16735;SDS011;17990;49.548;9.730;2023-12-20T09:39:16;4.17;;;1.43;;
16735;SDS011;17990;49.548;9.730;2023-12-20T09:41:45;2.83;;;1.30;;
16735;SDS011;17990;49.548;9.730;2023-12-20T09:44:18;2.73;;;1.17;;
16735;SDS011;17990;49.548;9.730;2023-12-20T09:46:45;4.13;;;1.77;;
16735;SDS011;17990;49.548;9.730;2023-12-20T09:49:17;1.87;;;1.30;;
16735;SDS011;17990;49.548;9.730;2023-12-20T09:51:45;3.13;;;1.33;;
16735;SDS011;17990;49.548;9.730;2023-12-20T09:54:13;8.97;;;1.60;;
16735;SDS011;17990;49.548;9.730;2023-12-20T09:56:41;4.50;;;1.63;;
16735;SDS011;17990;49.548;9.730;2023-12-20T09:59:08;5.03;;;1.43;;
16735;SDS011;17990;49.548;9.730;2023-12-20T10:01:35;2.30;;;1.17;;
16735;SDS011;17990;49.548;9.730;2023-12-20T10:04:04;3.63;;;1.30;;
16735;SDS011;17990;49.548;9.730;2023-12-20T10:06:35;5.73;;;1.40;;
16735;SDS011;17990;49.548;9.730;2023-12-20T10:09:02;3.27;;;1.60;;
16735;SDS011;17990;49.548;9.730;2023-12-20T10:11:30;2.40;;;1.30;;
16735;SDS011;17990;49.548;9.730;2023-12-20T10:13:58;7.23;;;2.20;;
16735;SDS011;17990;49.548;9.730;2023-12-20T10:16:26;5.87;;;1.70;;
16735;SDS011;17990;49.548;9.730;2023-12-20T10:18:54;3.77;;;1.50;;
16735;SDS011;17990;49.548;9.730;2023-12-20T10:21:21;4.43;;;1.50;;
16735;SDS011;17990;49.548;9.730;2023-12-20T10:23:50;4.87;;;1.60;;
16735;SDS011;17990;49.548;9.730;2023-12-20T10:26:20;4.90;;;1.60;;
16735;SDS011;17990;49.548;9.730;2023-12-20T10:28:49;3.87;;;1.17;;
16735;SDS011;17990;49.548;9.730;2023-12-20T10:31:26;5.33;;;2.20;;
16735;SDS011;17990;49.548;9.730;2023-12-20T10:33:56;2.03;;;1.27;;
16735;SDS011;17990;49.548;9.730;2023-12-20T10:36:24;3.40;;;1.47;;
16735;SDS011;17990;49.548;9.730;2023-12-20T10:38:53;3.77;;;1.40;;
16735;SDS011;17990;49.548;9.730;2023-12-20T10:41:23;3.33;;;1.37;;
16735;SDS011;17990;49.548;9.730;2023-12-20T10:43:52;2.63;;;1.20;;
16735;SDS011;17990;49.548;9.730;2023-12-20T10:46:21;6.97;;;1.60;;
16735;SDS011;17990;49.548;9.730;2023-12-20T10:48:47;3.10;;;1.20;;
16735;SDS011;17990;49.548;9.730;2023-12-20T10:51:17;2.97;;;1.20;;
16735;SDS011;17990;49.548;9.730;2023-12-20T10:53:45;3.80;;;1.30;;
16735;SDS011;17990;49.548;9.730;2023-12-20T10:56:15;4.77;;;1.33;;
16735;SDS011;17990;49.548;9.730;2023-12-20T10:58:42;4.93;;;1.83;;
16735;SDS011;17990;49.548;9.730;2023-12-20T11:01:12;4.50;;;1.17;;
16735;SDS011;17990;49.548;9.730;2023-12-20T11:03:42;3.30;;;1.40;;
16735;SDS011;17990;49.548;9.730;2023-12-20T11:06:15;3.80;;;1.37;;
16735;SDS011;17990;49.548;9.730;2023-12-20T11:09:01;10.43;;;1.37;;
16735;SDS011;17990;49.548;9.730;2023-12-20T11:11:39;3.63;;;1.30;;
16735;SDS011;17990;49.548;9.730;2023-12-20T11:14:18;4.83;;;1.80;;
16735;SDS011;17990;49.548;9.730;2023-12-20T11:16:48;6.27;;;1.70;;
16735;SDS011;17990;49.548;9.730;2023-12-20T11:19:16;7.57;;;2.10;;
16735;SDS011;17990;49.548;9.730;2023-12-20T11:21:43;6.63;;;2.30;;
16735;SDS011;17990;49.548;9.730;2023-12-20T11:24:11;7.03;;;2.90;;
16735;SDS011;17990;49.548;9.730;2023-12-20T11:26:41;10.13;;;2.70;;
16735;SDS011;17990;49.548;9.730;2023-12-20T11:29:32;3.87;;;2.10;;
16735;SDS011;17990;49.548;9.730;2023-12-20T11:32:03;5.77;;;1.50;;
16735;SDS011;17990;49.548;9.730;2023-12-20T11:34:50;9.30;;;1.93;;
16735;SDS011;17990;49.548;9.730;2023-12-20T11:37:17;6.80;;;2.40;;
16735;SDS011;17990;49.548;9.730;2023-12-20T11:39:45;7.73;;;2.10;;
16735;SDS011;17990;49.548;9.730;2023-12-20T11:42:22;6.00;;;2.00;;
16735;SDS011;17990;49.548;9.730;2023-12-20T11:44:48;3.17;;;1.40;;
16735;SDS011;17990;49.548;9.730;2023-12-20T11:47:17;5.23;;;1.93;;
16735;SDS011;17990;49.548;9.730;2023-12-20T11:49:44;3.57;;;1.70;;
16735;SDS011;17990;49.548;9.730;2023-12-20T11:52:12;4.60;;;1.40;;
16735;SDS011;17990;49.548;9.730;2023-12-20T11:54:39;3.77;;;1.60;;
16735;SDS011;17990;49.548;9.730;2023-12-20T11:57:06;7.83;;;1.90;;
16735;SDS011;17990;49.548;9.730;2023-12-20T11:59:34;5.37;;;1.60;;
16735;SDS011;17990;49.548;9.730;2023-12-20T12:02:02;4.70;;;1.70;;
16735;SDS011;17990;49.548;9.730;2023-12-20T12:04:28;4.67;;;1.30;;
16735;SDS011;17990;49.548;9.730;2023-12-20T12:06:55;6.93;;;1.30;;
16735;SDS011;17990;49.548;9.730;2023-12-20T12:09:22;3.83;;;1.40;;
16735;SDS011;17990;49.548;9.730;2023-12-20T12:11:48;4.60;;;1.00;;
16735;SDS011;17990;49.548;9.730;2023-12-20T12:14:15;10.10;;;2.50;;
16735;SDS011;17990;49.548;9.730;2023-12-20T12:16:45;5.30;;;1.50;;
16735;SDS011;17990;49.548;9.730;2023-12-20T12:19:19;3.97;;;1.80;;
16735;SDS011;17990;49.548;9.730;2023-12-20T12:21:47;5.70;;;1.77;;
16735;SDS011;17990;49.548;9.730;2023-12-20T12:24:13;5.87;;;1.30;;
16735;SDS011;17990;49.548;9.730;2023-12-20T12:26:40;4.80;;;1.67;;
16735;SDS011;17990;49.548;9.730;2023-12-20T12:29:07;4.43;;;1.70;;
16735;SDS011;17990;49.548;9.730;2023-12-20T12:31:34;5.00;;;2.00;;
16735;SDS011;17990;49.548;9.730;2023-12-20T12:34:02;7.53;;;2.00;;
16735;SDS011;17990;49.548;9.730;2023-12-20T12:36:29;3.50;;;1.33;;
16735;SDS011;17990;49.548;9.730;2023-12-20T12:38:56;4.23;;;1.07;;
16735;SDS011;17990;49.548;9.730;2023-12-20T12:41:23;7.00;;;1.50;;
16735;SDS011;17990;49.548;9.730;2023-12-20T12:43:50;5.77;;;1.30;;
16735;SDS011;17990;49.548;9.730;2023-12-20T12:46:16;3.37;;;1.10;;
16735;SDS011;17990;49.548;9.730;2023-12-20T12:48:43;3.03;;;0.80;;
16735;SDS011;17990;49.548;9.730;2023-12-20T12:51:12;7.80;;;1.10;;
16735;SDS011;17990;49.548;9.730;2023-12-20T12:53:39;10.80;;;1.80;;
16735;SDS011;17990;49.548;9.730;2023-12-20T12:56:05;4.43;;;1.30;;
16735;SDS011;17990;49.548;9.730;2023-12-20T12:58:32;4.70;;;1.10;;
16735;SDS011;17990;49.548;9.730;2023-12-20T13:00:59;5.97;;;1.03;;
16735;SDS011;17990;49.548;9.730;2023-12-20T13:03:26;5.33;;;0.93;;
16735;SDS011;17990;49.548;9.730;2023-12-20T13:05:53;4.13;;;1.07;;
16735;SDS011;17990;49.548;9.730;2023-12-20T13:08:21;4.33;;;1.27;;
16735;SDS011;17990;49.548;9.730;2023-12-20T13:10:48;4.73;;;1.37;;
16735;SDS011;17990;49.548;9.730;2023-12-20T13:13:15;4.93;;;1.13;;
16735;SDS011;17990;49.548;9.730;2023-12-20T13:15:42;6.17;;;1.87;;
16735;SDS011;17990;49.548;9.730;2023-12-20T13:18:13;4.17;;;1.20;;
16735;SDS011;17990;49.548;9.730;2023-12-20T13:20:39;10.23;;;1.40;;
16735;SDS011;17990;49.548;9.730;2023-12-20T13:23:06;9.70;;;1.50;;
16735;SDS011;17990;49.548;9.730;2023-12-20T13:25:34;6.47;;;1.60;;
16735;SDS011;17990;49.548;9.730;2023-12-20T13:28:01;5.77;;;1.27;;
16735;SDS011;17990;49.548;9.730;2023-12-20T13:30:28;4.00;;;1.17;;
16735;SDS011;17990;49.548;9.730;2023-12-20T13:32:55;5.63;;;1.73;;
16735;SDS011;17990;49.548;9.730;2023-12-20T13:35:22;3.43;;;1.40;;
16735;SDS011;17990;49.548;9.730;2023-12-20T13:37:48;2.73;;;1.03;;
16735;SDS011;17990;49.548;9.730;2023-12-20T13:40:15;4.40;;;1.53;;
16735;SDS011;17990;49.548;9.730;2023-12-20T13:42:44;6.37;;;1.10;;
16735;SDS011;17990;49.548;9.730;2023-12-20T13:45:11;7.13;;;1.10;;
16735;SDS011;17990;49.548;9.730;2023-12-20T13:47:37;4.50;;;1.27;;
16735;SDS011;17990;49.548;9.730;2023-12-20T13:50:05;5.77;;;1.50;;
16735;SDS011;17990;49.548;9.730;2023-12-20T13:52:32;3.37;;;1.17;;
16735;SDS011;17990;49.548;9.730;2023-12-20T13:54:58;2.57;;;1.13;;
16735;SDS011;17990;49.548;9.730;2023-12-20T13:57:25;5.43;;;1.30;;
16735;SDS011;17990;49.548;9.730;2023-12-20T13:59:55;6.63;;;1.53;;
16735;SDS011;17990;49.548;9.730;2023-12-20T14:02:23;5.33;;;1.50;;
16735;SDS011;17990;49.548;9.730;2023-12-20T14:04:51;7.13;;;1.77;;
16735;SDS011;17990;49.548;9.730;2023-12-20T14:07:18;4.80;;;1.40;;
16735;SDS011;17990;49.548;9.730;2023-12-20T14:09:46;4.80;;;1.40;;
16735;SDS011;17990;49.548;9.730;2023-12-20T14:12:13;5.57;;;1.60;;
16735;SDS011;17990;49.548;9.730;2023-12-20T14:14:40;6.40;;;2.00;;
16735;SDS011;17990;49.548;9.730;2023-12-20T14:17:08;4.00;;;1.63;;
16735;SDS011;17990;49.548;9.730;2023-12-20T14:19:35;4.60;;;1.70;;
16735;SDS011;17990;49.548;9.730;2023-12-20T14:22:02;13.43;;;2.30;;
16735;SDS011;17990;49.548;9.730;2023-12-20T14:24:29;10.90;;;3.70;;
16735;SDS011;17990;49.548;9.730;2023-12-20T14:26:56;5.57;;;2.00;;
16735;SDS011;17990;49.548;9.730;2023-12-20T14:29:23;7.13;;;2.43;;
16735;SDS011;17990;49.548;9.730;2023-12-20T14:31:50;3.60;;;1.63;;
16735;SDS011;17990;49.548;9.730;2023-12-20T14:34:18;5.47;;;1.93;;
16735;SDS011;17990;49.548;9.730;2023-12-20T14:36:45;7.97;;;1.77;;
16735;SDS011;17990;49.548;9.730;2023-12-20T14:39:12;4.87;;;1.50;;
16735;SDS011;17990;49.548;9.730;2023-12-20T14:41:38;5.30;;;1.67;;
16735;SDS011;17990;49.548;9.730;2023-12-20T14:44:06;3.40;;;1.33;;
16735;SDS011;17990;49.548;9.730;2023-12-20T14:46:32;4.17;;;1.40;;
16735;SDS011;17990;49.548;9.730;2023-12-20T14:48:59;4.97;;;1.50;;